Главная страница
METAR-TAF:

METAR-TAF

Аэропорты :

Шуанлю

Чэнду, Китай

широта: 30-40N, долгота: 104-01E, высота над уровнем моря: 508 м

Текущие метеонаблюдения

Эта сводка был подготовлена 38 минут назад, в 05:00 UTC
Ветер 4 Узел от юго-восточный, изменяющийся между восточный и южный
Температура 17°C
Влажность 68%
Давление 1004 hPa
Видимость: 4000 м
небольшая облачность на высоте 2300 фута, мощно-кучевые.
Отдельные облака на высоте 2300 фута
мгла

METAR: ZUUU 190500Z 14002MPS 090V170 4000 HZ FEW023TCU SCT023 17/11 Q1004 NOSIG

Время: 13:38 (05:38 UTC)

Прогноз

Эта сводка был подготовлена 3 часа и 29 минут назад, в 02:09 UTC
Прогноз действительный с 19-го 06 UTC до 20-го 06 UTC
Ветер 6 Узел от южный-юго-западный
Видимость: 5000 м
Отдельные облака на высоте 5000 фута
дымка

TAF: ZUUU 190209Z 1906/2006 20003MPS 5000 BR SCT050 TX19/1907Z TN10/1922Z

Метеонаблюдения и прогнозы для более 4000 аэропортов (сводки METAR и TAF).

Имеющиеся станции представлены на карте желтыми и красными точками.

Чтобы увидеть название станции, наведите на нее мышь.

Затем щелкните, чтобы увидеть метеонаблюдения и метеопрогнозы.

Управление картой: чтобы увеличить масштаб, щелкните зеленые кнопки с черным крестиком; чтобы уменьшить масштаб, щелкните зеленую кнопку с тире; для просмотра соседних карт щелкайте зеленые стрелки.


METAR-TAF: